createdAt,value
2018-12-29T00:00:39.731Z,48.00
2018-12-29T00:01:39.719Z,41.00
2018-12-29T00:02:39.733Z,44.10
2018-12-29T00:03:39.698Z,49.20
2018-12-29T00:04:39.697Z,46.90
2018-12-29T00:05:39.674Z,44.60
2018-12-29T00:06:39.665Z,41.90
2018-12-29T00:07:39.655Z,44.40
2018-12-29T00:08:39.639Z,44.70
2018-12-29T00:09:39.641Z,44.90
2018-12-29T00:10:39.621Z,43.10
2018-12-29T00:11:39.615Z,44.20
2018-12-29T00:12:39.625Z,43.80
2018-12-29T00:13:39.591Z,42.80
2018-12-29T00:14:39.577Z,43.10
2018-12-29T00:15:39.577Z,40.40
2018-12-29T00:16:39.562Z,41.00
2018-12-29T00:17:39.554Z,41.40
2018-12-29T00:18:39.541Z,41.70
2018-12-29T00:19:39.535Z,41.30
2018-12-29T00:20:39.521Z,43.30
2018-12-29T00:21:39.515Z,42.00
2018-12-29T00:22:39.493Z,41.90
2018-12-29T00:23:39.489Z,43.30
2018-12-29T00:24:39.477Z,41.30
2018-12-29T00:25:39.475Z,40.60
2018-12-29T00:26:39.457Z,42.10
2018-12-29T00:27:39.441Z,43.10
2018-12-29T00:28:39.433Z,44.10
2018-12-29T00:29:39.425Z,41.10
2018-12-29T00:30:39.416Z,43.00
2018-12-29T00:31:39.403Z,44.20
2018-12-29T00:32:39.414Z,42.80
2018-12-29T00:33:39.391Z,40.60
2018-12-29T00:34:39.393Z,43.30
2018-12-29T00:35:39.401Z,41.20
2018-12-29T00:36:39.355Z,42.40
2018-12-29T00:37:39.343Z,38.70
2018-12-29T00:38:39.323Z,39.60
2018-12-29T00:39:39.324Z,39.70
2018-12-29T00:40:39.311Z,41.00
2018-12-29T00:41:39.297Z,44.70
2018-12-29T00:42:39.287Z,43.50
2018-12-29T00:43:39.273Z,44.20
2018-12-29T00:44:39.266Z,40.90
2018-12-29T00:45:39.260Z,44.20
2018-12-29T00:46:39.249Z,43.40
2018-12-29T00:47:39.240Z,44.10
2018-12-29T00:48:39.239Z,42.80
2018-12-29T00:49:39.221Z,45.40
2018-12-29T00:50:39.206Z,42.40
2018-12-29T00:51:39.195Z,45.90
2018-12-29T00:52:39.181Z,44.20
2018-12-29T00:53:39.171Z,44.70
2018-12-29T00:54:39.159Z,45.30
2018-12-29T00:55:39.151Z,43.80
2018-12-29T00:56:39.202Z,44.00
2018-12-29T00:57:39.131Z,45.80
2018-12-29T00:58:39.118Z,46.60
2018-12-29T00:59:39.105Z,44.60
2018-12-29T01:00:39.098Z,45.80
2018-12-29T01:01:39.084Z,45.20
2018-12-29T01:02:39.078Z,45.90
2018-12-29T01:03:39.067Z,46.10
2018-12-29T01:04:39.056Z,46.10
2018-12-29T01:05:39.039Z,47.40
2018-12-29T01:06:39.034Z,48.30
2018-12-29T01:07:39.023Z,46.60
2018-12-29T01:08:39.012Z,43.90
2018-12-29T01:09:39.006Z,49.40
2018-12-29T01:10:39.020Z,47.00
2018-12-29T01:11:38.997Z,49.00
2018-12-29T01:12:38.969Z,47.70
2018-12-29T01:13:38.961Z,49.20
2018-12-29T01:14:38.956Z,45.90
2018-12-29T01:15:38.941Z,47.40
2018-12-29T01:16:38.930Z,47.80
2018-12-29T01:17:38.920Z,50.50
2018-12-29T01:18:38.911Z,50.10
2018-12-29T01:19:38.897Z,48.40
2018-12-29T01:20:38.897Z,49.40
2018-12-29T01:21:38.883Z,49.00
2018-12-29T01:22:38.864Z,50.20
2018-12-29T01:23:38.852Z,53.50
2018-12-29T01:24:38.858Z,49.10
2018-12-29T01:25:38.833Z,48.20
2018-12-29T01:26:38.828Z,53.20
2018-12-29T01:27:38.817Z,50.20
2018-12-29T01:28:38.803Z,54.10
2018-12-29T01:29:38.794Z,49.70
2018-12-29T01:30:38.782Z,50.90
2018-12-29T01:31:38.775Z,54.60
2018-12-29T01:32:38.762Z,53.40
2018-12-29T01:33:38.753Z,51.10
2018-12-29T01:34:38.763Z,52.50
2018-12-29T01:35:38.729Z,55.30
2018-12-29T01:36:38.723Z,60.70
2018-12-29T01:37:38.714Z,55.60
2018-12-29T01:38:38.696Z,53.20
2018-12-29T01:39:38.690Z,57.00
2018-12-29T01:40:38.688Z,54.90
2018-12-29T01:41:38.664Z,56.50
2018-12-29T01:42:38.660Z,56.60
2018-12-29T01:43:38.648Z,54.60
2018-12-29T01:44:38.632Z,56.20
2018-12-29T01:45:38.634Z,60.30
2018-12-29T01:46:38.623Z,58.10
2018-12-29T01:47:38.620Z,57.30
2018-12-29T01:48:38.593Z,61.30
2018-12-29T01:49:38.582Z,60.50
2018-12-29T01:50:38.578Z,59.10
2018-12-29T01:51:38.560Z,59.90
2018-12-29T01:52:38.557Z,56.70
2018-12-29T01:53:38.537Z,57.80
2018-12-29T01:54:38.533Z,56.80
2018-12-29T01:55:38.516Z,56.30
2018-12-29T01:56:38.508Z,57.00
2018-12-29T01:57:38.522Z,57.60
2018-12-29T01:58:38.486Z,65.80
2018-12-29T01:59:38.481Z,65.40
2018-12-29T02:00:38.460Z,58.80
2018-12-29T02:01:38.458Z,61.20
2018-12-29T02:02:38.444Z,58.00
2018-12-29T02:03:38.452Z,60.10
2018-12-29T02:04:38.425Z,57.70
2018-12-29T02:05:38.412Z,57.90
2018-12-29T02:06:38.408Z,55.10
2018-12-29T02:07:38.388Z,59.50
2018-12-29T02:08:38.382Z,56.60
2018-12-29T02:09:38.371Z,59.50
2018-12-29T02:10:38.374Z,59.10
2018-12-29T02:11:38.349Z,58.30
2018-12-29T02:12:38.338Z,59.70
2018-12-29T02:13:38.332Z,58.60
2018-12-29T02:14:38.316Z,58.60
2018-12-29T02:15:38.311Z,57.20
2018-12-29T02:16:38.299Z,59.20
2018-12-29T02:17:38.288Z,54.50
2018-12-29T02:18:38.278Z,53.40
2018-12-29T02:19:38.264Z,55.40
2018-12-29T02:20:38.259Z,53.00
2018-12-29T02:21:38.260Z,55.00
2018-12-29T02:22:38.236Z,58.60
2018-12-29T02:23:38.232Z,56.20
2018-12-29T02:24:38.218Z,54.90
2018-12-29T02:25:38.199Z,55.40
2018-12-29T02:26:38.195Z,59.20
2018-12-29T02:27:38.182Z,58.00
2018-12-29T02:28:38.172Z,54.40
2018-12-29T02:29:38.159Z,56.10
2018-12-29T02:30:38.150Z,55.60
2018-12-29T02:31:38.141Z,57.40
2018-12-29T02:32:38.132Z,55.90
2018-12-29T02:33:38.134Z,53.70
2018-12-29T02:34:38.110Z,53.60
2018-12-29T02:35:38.095Z,54.10
2018-12-29T02:36:38.092Z,52.70
2018-12-29T02:37:38.076Z,57.20
2018-12-29T02:38:38.065Z,55.70
2018-12-29T02:39:38.053Z,55.20
2018-12-29T02:40:38.042Z,56.60
2018-12-29T02:41:38.031Z,58.10
2018-12-29T02:42:38.025Z,54.80
2018-12-29T02:43:38.009Z,55.30
2018-12-29T02:44:38.004Z,57.40
2018-12-29T02:45:37.995Z,53.50
2018-12-29T02:46:37.992Z,55.20
2018-12-29T02:47:37.967Z,55.30
2018-12-29T02:48:37.962Z,54.30
2018-12-29T02:49:37.949Z,50.50
2018-12-29T02:50:37.942Z,56.00
2018-12-29T02:51:37.926Z,55.70
2018-12-29T02:52:37.912Z,55.90
2018-12-29T02:53:37.908Z,57.40
2018-12-29T02:54:37.896Z,53.90
2018-12-29T02:55:37.883Z,53.80
2018-12-29T02:56:37.895Z,53.40
2018-12-29T02:57:37.869Z,52.60
2018-12-29T02:58:37.855Z,53.10
2018-12-29T02:59:37.840Z,55.30
2018-12-29T03:00:37.831Z,55.20
2018-12-29T03:01:37.831Z,53.70
2018-12-29T03:02:37.821Z,53.30
2018-12-29T03:03:37.803Z,54.10
2018-12-29T03:04:37.790Z,50.90
2018-12-29T03:05:37.778Z,52.40
2018-12-29T03:06:37.767Z,51.00
2018-12-29T03:07:37.780Z,53.60
2018-12-29T03:08:37.759Z,54.20
2018-12-29T03:09:37.745Z,55.80
2018-12-29T03:10:37.725Z,54.80
2018-12-29T03:11:37.719Z,55.30
2018-12-29T03:12:37.701Z,55.30
2018-12-29T03:13:37.697Z,54.50
2018-12-29T03:14:37.691Z,49.20
2018-12-29T03:15:41.704Z,52.40
2018-12-29T03:16:37.662Z,50.80
2018-12-29T03:17:37.656Z,52.50
2018-12-29T03:18:37.646Z,53.40
2018-12-29T03:19:37.663Z,52.50
2018-12-29T03:20:37.634Z,49.20
2018-12-29T03:21:37.613Z,52.30
2018-12-29T03:22:37.604Z,52.20
2018-12-29T03:23:37.658Z,52.40
2018-12-29T03:24:37.584Z,49.80
2018-12-29T03:25:37.572Z,49.30
2018-12-29T03:26:37.563Z,51.40
2018-12-29T03:27:37.549Z,50.50
2018-12-29T03:28:37.532Z,52.10
2018-12-29T03:29:37.526Z,53.30
2018-12-29T03:30:37.520Z,52.10
2018-12-29T03:31:37.524Z,53.80
2018-12-29T03:32:37.527Z,52.90
2018-12-29T03:33:37.493Z,48.90
2018-12-29T03:34:37.480Z,54.60
2018-12-29T03:35:37.462Z,49.80
2018-12-29T03:36:37.459Z,54.40
2018-12-29T03:37:37.449Z,51.90
2018-12-29T03:38:37.434Z,51.70
2018-12-29T03:39:37.425Z,50.40
2018-12-29T03:40:37.417Z,50.10
2018-12-29T03:41:37.404Z,52.70
2018-12-29T03:42:37.425Z,49.50
2018-12-29T03:43:37.393Z,53.50
2018-12-29T03:44:37.379Z,51.00
2018-12-29T03:45:37.362Z,51.50
2018-12-29T03:46:37.356Z,49.50
2018-12-29T03:47:37.344Z,50.40
2018-12-29T03:48:37.334Z,49.40
2018-12-29T03:49:37.320Z,51.00
2018-12-29T03:50:37.313Z,50.30
2018-12-29T03:51:37.301Z,49.80
2018-12-29T03:52:37.374Z,53.00
2018-12-29T03:53:37.277Z,50.90
2018-12-29T03:54:37.265Z,53.50
2018-12-29T03:55:37.264Z,54.90
2018-12-29T03:56:37.255Z,53.90
2018-12-29T03:57:37.236Z,50.90
2018-12-29T03:58:37.222Z,52.80
2018-12-29T03:59:37.215Z,55.20
2018-12-29T04:00:37.204Z,53.30
2018-12-29T04:01:37.208Z,53.00
2018-12-29T04:02:37.183Z,56.80
2018-12-29T04:03:37.177Z,51.40
2018-12-29T04:04:37.166Z,52.60
2018-12-29T04:05:37.151Z,53.60
2018-12-29T04:06:37.139Z,56.30
2018-12-29T04:07:37.130Z,56.40
2018-12-29T04:08:37.127Z,57.50
2018-12-29T04:09:37.113Z,55.30
2018-12-29T04:10:37.102Z,56.00
2018-12-29T04:11:37.088Z,54.40
2018-12-29T04:12:37.075Z,54.80
2018-12-29T04:13:37.068Z,56.90
2018-12-29T04:14:37.070Z,55.80
2018-12-29T04:15:37.048Z,62.10
2018-12-29T04:16:37.046Z,56.80
2018-12-29T04:17:37.028Z,57.40
2018-12-29T04:18:37.061Z,55.40
2018-12-29T04:19:37.002Z,54.40
2018-12-29T04:20:37.023Z,58.70
2018-12-29T04:21:36.987Z,58.20
2018-12-29T04:22:36.981Z,60.60
2018-12-29T04:23:36.964Z,55.70
2018-12-29T04:24:36.956Z,58.40
2018-12-29T04:25:36.947Z,57.80
2018-12-29T04:26:36.933Z,61.70
2018-12-29T04:27:36.918Z,54.10
2018-12-29T04:28:36.908Z,58.20
2018-12-29T04:29:36.897Z,61.20
2018-12-29T04:30:36.888Z,59.80
2018-12-29T04:31:36.892Z,57.00
2018-12-29T04:32:36.866Z,65.50
2018-12-29T04:33:36.858Z,58.90
2018-12-29T04:34:36.848Z,63.90
2018-12-29T04:35:36.837Z,58.80
2018-12-29T04:36:36.830Z,60.10
2018-12-29T04:37:36.890Z,62.80
2018-12-29T04:38:36.802Z,61.30
2018-12-29T04:39:36.794Z,62.60
2018-12-29T04:40:36.785Z,55.60
2018-12-29T04:41:36.792Z,62.90
2018-12-29T04:42:36.762Z,58.50
2018-12-29T04:43:36.756Z,60.30
2018-12-29T04:44:36.782Z,60.30
2018-12-29T04:45:36.731Z,59.60
2018-12-29T04:46:36.723Z,61.50
2018-12-29T04:47:36.708Z,59.70
2018-12-29T04:48:36.696Z,61.20
2018-12-29T04:49:36.686Z,59.30
2018-12-29T04:50:36.694Z,58.60
2018-12-29T04:51:36.666Z,62.20
2018-12-29T04:52:36.657Z,60.00
2018-12-29T04:53:36.648Z,61.70
2018-12-29T04:54:36.652Z,61.50
2018-12-29T04:55:36.629Z,61.40
2018-12-29T04:56:36.616Z,58.20
2018-12-29T04:57:36.604Z,60.00
2018-12-29T04:58:36.592Z,59.70
2018-12-29T04:59:36.583Z,59.10
2018-12-29T05:00:36.566Z,58.50
2018-12-29T05:01:36.561Z,60.10
2018-12-29T05:02:36.550Z,60.80
2018-12-29T05:03:36.536Z,57.70
2018-12-29T05:04:36.540Z,62.80
2018-12-29T05:05:36.522Z,60.50
2018-12-29T05:06:36.506Z,59.80
2018-12-29T05:07:36.560Z,59.70
2018-12-29T05:08:36.480Z,60.70
2018-12-29T05:09:36.470Z,59.20
2018-12-29T05:10:36.466Z,58.60
2018-12-29T05:11:36.448Z,60.70
2018-12-29T05:12:36.441Z,62.20
2018-12-29T05:13:36.430Z,58.30
2018-12-29T05:14:36.420Z,60.20
2018-12-29T05:15:36.407Z,61.70
2018-12-29T05:16:36.397Z,55.00
2018-12-29T05:17:36.402Z,59.00
2018-12-29T05:18:36.380Z,57.90
2018-12-29T05:19:36.442Z,62.20
2018-12-29T05:20:36.356Z,63.20
2018-12-29T05:21:36.342Z,58.30
2018-12-29T05:22:36.341Z,58.90
2018-12-29T05:23:36.324Z,59.50
2018-12-29T05:24:36.310Z,59.10
2018-12-29T05:25:36.309Z,58.70
2018-12-29T05:26:36.312Z,62.70
2018-12-29T05:27:36.307Z,60.50
2018-12-29T05:28:36.276Z,63.80
2018-12-29T05:29:36.255Z,62.80
2018-12-29T05:30:36.275Z,59.90
2018-12-29T05:31:36.234Z,61.50
2018-12-29T05:32:36.238Z,62.30
2018-12-29T05:33:36.216Z,59.20
2018-12-29T05:34:36.208Z,63.50
2018-12-29T05:35:36.201Z,62.50
2018-12-29T05:36:36.184Z,60.70
2018-12-29T05:37:36.174Z,63.10
2018-12-29T05:38:36.172Z,68.60
2018-12-29T05:39:36.168Z,60.50
2018-12-29T05:40:36.146Z,60.80
2018-12-29T05:41:36.130Z,63.70
2018-12-29T05:42:36.177Z,66.60
2018-12-29T05:43:36.109Z,61.30
2018-12-29T05:44:36.096Z,60.10
2018-12-29T05:45:36.086Z,62.30
2018-12-29T05:46:36.081Z,63.20
2018-12-29T05:47:36.066Z,62.00
2018-12-29T05:48:36.063Z,62.60
2018-12-29T05:49:36.049Z,62.40
2018-12-29T05:50:36.055Z,64.70
2018-12-29T05:51:36.028Z,62.10
2018-12-29T05:52:36.013Z,59.70
2018-12-29T05:53:36.013Z,63.00
2018-12-29T05:54:35.993Z,60.40
2018-12-29T05:55:35.986Z,61.90
2018-12-29T05:56:35.977Z,60.00
2018-12-29T05:57:35.964Z,58.50
2018-12-29T05:58:35.949Z,59.30
2018-12-29T05:59:35.939Z,61.60
2018-12-29T06:00:35.935Z,63.90
2018-12-29T06:01:35.918Z,58.60
2018-12-29T06:02:35.909Z,55.70
2018-12-29T06:03:35.915Z,55.90
2018-12-29T06:04:35.883Z,56.70
2018-12-29T06:05:35.878Z,59.20
2018-12-29T06:06:35.869Z,57.70
2018-12-29T06:07:35.855Z,54.10
2018-12-29T06:08:35.839Z,63.10
2018-12-29T06:09:35.837Z,56.10
2018-12-29T06:10:35.816Z,58.70
2018-12-29T06:11:35.810Z,58.80
2018-12-29T06:12:35.797Z,60.30
2018-12-29T06:13:35.783Z,62.10
2018-12-29T06:14:35.776Z,58.70
2018-12-29T06:15:35.767Z,56.10
2018-12-29T06:16:35.777Z,58.10
2018-12-29T06:17:35.738Z,59.10
2018-12-29T06:18:35.735Z,58.80
2018-12-29T06:19:35.726Z,59.50
2018-12-29T06:20:35.706Z,59.80
2018-12-29T06:21:35.700Z,63.00
2018-12-29T06:22:35.688Z,63.30
2018-12-29T06:23:35.693Z,59.60
2018-12-29T06:24:35.668Z,62.30
2018-12-29T06:25:35.657Z,64.70
2018-12-29T06:26:35.678Z,62.60
2018-12-29T06:27:35.648Z,63.60
2018-12-29T06:28:35.628Z,66.90
2018-12-29T06:29:35.612Z,60.90
2018-12-29T06:30:35.617Z,62.30
2018-12-29T06:31:35.596Z,59.40
2018-12-29T06:32:35.580Z,65.80
2018-12-29T06:33:35.575Z,58.70
2018-12-29T06:34:35.564Z,62.90
2018-12-29T06:35:35.559Z,62.10
2018-12-29T06:36:35.541Z,66.50
2018-12-29T06:37:35.526Z,61.40
2018-12-29T06:38:35.519Z,58.90
2018-12-29T06:39:35.531Z,61.90
2018-12-29T06:40:35.496Z,60.30
2018-12-29T06:41:35.488Z,64.60
2018-12-29T06:42:35.474Z,60.80
2018-12-29T06:43:35.464Z,63.10
2018-12-29T06:44:35.454Z,63.80
2018-12-29T06:45:35.443Z,63.20
2018-12-29T06:46:35.439Z,65.00
2018-12-29T06:47:35.423Z,63.70
2018-12-29T06:48:35.407Z,66.10
2018-12-29T06:49:35.398Z,62.60
2018-12-29T06:50:35.385Z,63.60
2018-12-29T06:51:35.376Z,59.40
2018-12-29T06:52:35.367Z,58.90
2018-12-29T06:53:35.357Z,64.80
2018-12-29T06:54:35.343Z,61.60
2018-12-29T06:55:35.333Z,62.10
2018-12-29T06:56:35.322Z,67.80
2018-12-29T06:57:35.311Z,65.40
2018-12-29T06:58:35.299Z,62.90
2018-12-29T06:59:35.288Z,63.70
2018-12-29T07:00:35.279Z,63.90
2018-12-29T07:01:35.275Z,62.90
2018-12-29T07:02:35.275Z,69.70
2018-12-29T07:03:35.276Z,66.90
2018-12-29T07:04:35.239Z,66.60
2018-12-29T07:05:35.303Z,65.80
2018-12-29T07:06:35.211Z,70.10
2018-12-29T07:07:35.202Z,62.40
2018-12-29T07:08:35.198Z,68.90
2018-12-29T07:09:35.176Z,69.70
2018-12-29T07:10:35.177Z,70.70
2018-12-29T07:11:35.163Z,71.30
2018-12-29T07:12:35.151Z,67.70
2018-12-29T07:13:35.141Z,66.50
2018-12-29T07:14:35.125Z,62.80
2018-12-29T07:15:35.137Z,64.30
2018-12-29T07:16:42.026Z,63.70
2018-12-29T07:17:36.091Z,66.20
2018-12-29T07:18:35.090Z,71.10
2018-12-29T07:19:35.080Z,64.00
2018-12-29T07:20:35.082Z,65.20
2018-12-29T07:21:35.051Z,65.70
2018-12-29T07:22:35.042Z,64.80
2018-12-29T07:23:35.030Z,66.50
2018-12-29T07:24:35.020Z,69.80
2018-12-29T07:25:35.029Z,68.20
2018-12-29T07:26:35.005Z,70.20
2018-12-29T07:27:34.991Z,66.80
2018-12-29T07:28:34.987Z,69.00
2018-12-29T07:29:38.361Z,59.50
2018-12-29T07:30:34.957Z,68.50
2018-12-29T07:31:34.952Z,66.50
2018-12-29T07:32:34.938Z,66.70
2018-12-29T07:33:34.930Z,63.60
2018-12-29T07:34:34.924Z,62.90
2018-12-29T07:35:34.901Z,64.30
2018-12-29T07:36:34.891Z,62.60
2018-12-29T07:37:34.877Z,64.20
2018-12-29T07:38:34.878Z,64.40
2018-12-29T07:39:34.855Z,60.50
2018-12-29T07:40:34.844Z,64.20
2018-12-29T07:41:34.842Z,62.00
2018-12-29T07:42:34.821Z,62.80
2018-12-29T07:43:34.812Z,61.70
2018-12-29T07:44:34.805Z,62.40
2018-12-29T07:45:34.794Z,57.60
2018-12-29T07:46:34.791Z,61.80
2018-12-29T07:47:34.779Z,64.00
2018-12-29T07:48:34.786Z,59.40
2018-12-29T07:49:34.751Z,54.20
2018-12-29T07:50:34.737Z,55.20
2018-12-29T07:51:34.740Z,57.40
2018-12-29T07:52:34.717Z,58.60
2018-12-29T07:53:34.709Z,58.70
2018-12-29T07:54:34.693Z,59.10
2018-12-29T07:55:34.690Z,58.80
2018-12-29T07:56:34.670Z,55.40
2018-12-29T07:57:34.670Z,57.70
2018-12-29T07:58:34.652Z,58.20
2018-12-29T07:59:34.640Z,57.80
2018-12-29T08:00:34.628Z,57.60
2018-12-29T08:01:34.634Z,57.90
2018-12-29T08:02:34.615Z,58.10
2018-12-29T08:03:34.606Z,58.10
2018-12-29T08:04:34.590Z,60.00
2018-12-29T08:05:34.585Z,58.00
2018-12-29T08:06:34.567Z,55.50
2018-12-29T08:07:34.557Z,60.30
2018-12-29T08:08:34.547Z,52.90
2018-12-29T08:09:34.538Z,57.40
2018-12-29T08:10:34.523Z,54.50
2018-12-29T08:11:34.508Z,60.30
2018-12-29T08:12:34.495Z,60.10
2018-12-29T08:13:34.485Z,58.50
2018-12-29T08:14:34.491Z,59.90
2018-12-29T08:15:34.471Z,59.40
2018-12-29T08:16:34.463Z,59.70
2018-12-29T08:17:34.445Z,59.80
2018-12-29T08:18:34.432Z,55.70
2018-12-29T08:19:34.424Z,58.20
2018-12-29T08:20:34.413Z,59.10
2018-12-29T08:21:34.401Z,58.70
2018-12-29T08:22:34.392Z,55.80
2018-12-29T08:23:34.382Z,61.00
2018-12-29T08:24:34.370Z,56.00
2018-12-29T08:25:34.358Z,61.60
2018-12-29T08:26:34.346Z,58.80
2018-12-29T08:27:34.337Z,54.90
2018-12-29T08:28:34.334Z,56.20
2018-12-29T08:29:34.316Z,63.60
2018-12-29T08:30:34.310Z,61.70
2018-12-29T08:31:34.297Z,62.70
2018-12-29T08:32:34.288Z,60.20
2018-12-29T08:33:34.276Z,61.50
2018-12-29T08:34:34.264Z,58.60
2018-12-29T08:35:34.256Z,64.00
2018-12-29T08:36:34.240Z,57.70
2018-12-29T08:37:34.232Z,59.30
2018-12-29T08:38:34.220Z,61.00
2018-12-29T08:39:34.211Z,64.00
2018-12-29T08:40:34.199Z,60.30
2018-12-29T08:41:34.202Z,54.60
2018-12-29T08:42:34.182Z,59.00
2018-12-29T08:43:34.176Z,57.20
2018-12-29T08:44:34.165Z,56.60
2018-12-29T08:45:34.145Z,62.40
2018-12-29T08:46:34.134Z,63.60
2018-12-29T08:47:34.161Z,64.00
2018-12-29T08:48:34.118Z,61.70
2018-12-29T08:49:34.101Z,62.10
2018-12-29T08:50:34.094Z,62.70
2018-12-29T08:51:34.092Z,59.40
2018-12-29T08:52:34.080Z,60.90
2018-12-29T08:53:34.057Z,59.80
2018-12-29T08:54:34.050Z,65.80
2018-12-29T08:55:34.057Z,65.80
2018-12-29T08:56:34.031Z,61.90
2018-12-29T08:57:34.016Z,71.30
2018-12-29T08:58:34.006Z,65.40
2018-12-29T08:59:33.996Z,66.10
2018-12-29T09:00:33.998Z,63.40
2018-12-29T09:01:34.002Z,69.10
2018-12-29T09:02:33.968Z,63.10
2018-12-29T09:03:33.958Z,64.90
2018-12-29T09:04:33.944Z,70.40
2018-12-29T09:05:33.944Z,66.40
2018-12-29T09:06:33.930Z,67.60
2018-12-29T09:07:33.914Z,67.90
2018-12-29T09:08:33.908Z,63.90
2018-12-29T09:09:33.897Z,68.80
2018-12-29T09:10:33.880Z,67.30
2018-12-29T09:11:33.867Z,73.70
2018-12-29T09:12:33.860Z,65.50
2018-12-29T09:13:33.864Z,67.50
2018-12-29T09:14:33.841Z,69.70
2018-12-29T09:15:33.829Z,67.20
2018-12-29T09:16:33.820Z,66.10
2018-12-29T09:17:33.804Z,65.40
2018-12-29T09:18:33.790Z,64.40
2018-12-29T09:19:33.791Z,65.30
2018-12-29T09:20:33.780Z,63.40
2018-12-29T09:21:33.759Z,73.20
2018-12-29T09:22:33.770Z,64.70
2018-12-29T09:23:33.760Z,60.10
2018-12-29T09:24:33.725Z,69.20
2018-12-29T09:25:33.716Z,57.10
2018-12-29T09:26:33.706Z,67.20
2018-12-29T09:27:33.703Z,64.30
2018-12-29T09:28:33.688Z,61.50
2018-12-29T09:29:33.678Z,64.10
2018-12-29T09:30:34.476Z,59.50
2018-12-29T09:31:33.655Z,58.70
2018-12-29T09:32:33.643Z,57.30
2018-12-29T09:33:33.639Z,65.30
2018-12-29T09:34:33.629Z,63.80
2018-12-29T09:35:33.613Z,62.70
2018-12-29T09:36:33.625Z,64.70
2018-12-29T09:37:33.596Z,60.20
2018-12-29T09:38:33.578Z,58.80
2018-12-29T09:39:33.569Z,55.50
2018-12-29T09:40:33.555Z,53.00
2018-12-29T09:41:33.551Z,57.90
2018-12-29T09:42:33.547Z,57.70
2018-12-29T09:43:33.535Z,54.60
2018-12-29T09:44:33.516Z,59.30
2018-12-29T09:45:33.512Z,55.30
2018-12-29T09:46:33.519Z,51.40
2018-12-29T09:47:33.482Z,54.10
2018-12-29T09:48:33.480Z,57.50
2018-12-29T09:49:33.461Z,60.40
2018-12-29T09:50:33.448Z,58.80
2018-12-29T09:51:33.451Z,53.30
2018-12-29T09:52:33.436Z,57.10
2018-12-29T09:53:33.418Z,63.40
2018-12-29T09:54:33.410Z,59.30
2018-12-29T09:55:33.408Z,58.70
2018-12-29T09:56:33.406Z,62.50
2018-12-29T09:57:33.390Z,62.00
2018-12-29T09:58:33.378Z,59.50
2018-12-29T09:59:33.383Z,60.10
2018-12-29T10:00:33.359Z,56.40
2018-12-29T10:01:33.338Z,57.00
2018-12-29T10:02:33.328Z,61.90
2018-12-29T10:03:33.318Z,58.90
2018-12-29T10:04:33.311Z,62.10
2018-12-29T10:05:33.294Z,55.80
2018-12-29T10:06:33.281Z,59.90
2018-12-29T10:07:33.278Z,60.10
2018-12-29T10:08:33.266Z,56.10
2018-12-29T10:09:33.278Z,53.50
2018-12-29T10:10:33.246Z,52.70
2018-12-29T10:11:33.230Z,51.00
2018-12-29T10:12:33.238Z,50.60
2018-12-29T10:13:33.224Z,51.80
2018-12-29T10:14:33.200Z,54.10
2018-12-29T10:15:33.194Z,49.00
2018-12-29T10:16:33.175Z,50.60
2018-12-29T10:17:33.168Z,50.20
2018-12-29T10:18:33.156Z,49.50
2018-12-29T10:19:33.166Z,49.50
2018-12-29T10:20:33.142Z,49.00
2018-12-29T10:21:33.127Z,48.80
2018-12-29T10:22:33.126Z,48.10
2018-12-29T10:23:33.107Z,46.90
2018-12-29T10:24:33.096Z,49.80
2018-12-29T10:25:33.090Z,50.70
2018-12-29T10:26:33.074Z,49.20
2018-12-29T10:27:33.067Z,49.20
2018-12-29T10:28:33.052Z,47.80
2018-12-29T10:29:33.069Z,45.40
2018-12-29T10:30:33.029Z,50.50
2018-12-29T10:31:33.022Z,50.40
2018-12-29T10:32:33.048Z,53.70
2018-12-29T10:33:33.000Z,48.60
2018-12-29T10:34:32.984Z,48.90
2018-12-29T10:35:32.978Z,50.40
2018-12-29T10:36:32.972Z,49.00
2018-12-29T10:37:32.975Z,49.60
2018-12-29T10:38:32.948Z,49.20
2018-12-29T10:39:32.936Z,50.50
2018-12-29T10:40:32.927Z,52.50
2018-12-29T10:41:32.921Z,51.50
2018-12-29T10:42:32.911Z,52.80
2018-12-29T10:43:32.913Z,52.50
2018-12-29T10:44:32.882Z,53.80
2018-12-29T10:45:32.882Z,45.90
2018-12-29T10:46:32.860Z,51.50
2018-12-29T10:47:34.698Z,52.70
2018-12-29T10:48:32.846Z,53.10
2018-12-29T10:49:32.846Z,49.70
2018-12-29T10:50:32.821Z,50.20
2018-12-29T10:51:32.878Z,50.40
2018-12-29T10:52:32.800Z,48.10
2018-12-29T10:53:32.793Z,48.60
2018-12-29T10:54:32.776Z,50.00
2018-12-29T10:55:32.768Z,49.90
2018-12-29T10:56:32.760Z,48.50
2018-12-29T10:57:32.741Z,45.70
2018-12-29T10:58:32.742Z,46.30
2018-12-29T10:59:32.727Z,50.60
2018-12-29T11:00:35.214Z,49.10
2018-12-29T11:01:32.714Z,43.80
2018-12-29T11:02:32.698Z,48.70
2018-12-29T11:03:32.766Z,42.70
2018-12-29T11:04:32.682Z,46.00
2018-12-29T11:05:32.664Z,46.60
2018-12-29T11:06:32.650Z,46.40
2018-12-29T11:07:32.640Z,46.50
2018-12-29T11:08:33.010Z,48.00
2018-12-29T11:09:32.613Z,45.80
2018-12-29T11:10:32.630Z,50.10
2018-12-29T11:11:32.601Z,46.50
2018-12-29T11:12:32.591Z,47.60
2018-12-29T11:13:32.581Z,49.90
2018-12-29T11:14:32.568Z,48.90
2018-12-29T11:15:32.556Z,48.20
2018-12-29T11:16:32.546Z,48.10
2018-12-29T11:17:32.545Z,47.20
2018-12-29T11:18:32.524Z,49.10
2018-12-29T11:19:32.514Z,50.10
2018-12-29T11:20:32.502Z,49.80
2018-12-29T11:21:32.510Z,49.40
2018-12-29T11:22:32.488Z,48.50
2018-12-29T11:23:32.484Z,49.40
2018-12-29T11:24:32.460Z,50.80
2018-12-29T11:25:32.448Z,52.80
2018-12-29T11:26:32.439Z,48.40
2018-12-29T11:27:32.435Z,51.60
2018-12-29T11:28:32.424Z,52.60
2018-12-29T11:29:32.414Z,55.30
2018-12-29T11:30:32.396Z,51.40
2018-12-29T11:31:32.397Z,53.30
2018-12-29T11:32:32.379Z,54.20
2018-12-29T11:33:32.367Z,55.70
2018-12-29T11:34:32.367Z,55.90
2018-12-29T11:35:32.341Z,53.00
2018-12-29T11:36:32.336Z,53.30
2018-12-29T11:37:32.326Z,53.50
2018-12-29T11:38:32.314Z,57.20
2018-12-29T11:39:32.306Z,56.20
2018-12-29T11:40:32.297Z,52.60
2018-12-29T11:41:32.283Z,57.90
2018-12-29T11:42:32.270Z,56.40
2018-12-29T11:43:32.260Z,53.50
2018-12-29T11:44:32.281Z,55.60
2018-12-29T11:45:32.245Z,58.10
2018-12-29T11:46:32.234Z,57.10
2018-12-29T11:47:32.223Z,56.40
2018-12-29T11:48:32.212Z,56.50
2018-12-29T11:49:32.198Z,56.10
2018-12-29T11:50:32.195Z,55.80
2018-12-29T11:51:32.175Z,54.20
2018-12-29T11:52:32.164Z,57.10
2018-12-29T11:53:32.160Z,52.40
2018-12-29T11:54:32.159Z,52.50
2018-12-29T11:55:32.131Z,54.20
2018-12-29T11:56:32.123Z,56.00
2018-12-29T11:57:32.113Z,54.40
2018-12-29T11:58:32.113Z,58.60
2018-12-29T11:59:32.094Z,51.80
2018-12-29T12:00:32.085Z,55.20
2018-12-29T12:01:32.071Z,60.10
2018-12-29T12:02:32.060Z,56.40
2018-12-29T12:03:32.053Z,56.20
2018-12-29T12:04:32.038Z,56.10
2018-12-29T12:05:32.030Z,55.00
2018-12-29T12:06:32.019Z,55.70
2018-12-29T12:07:32.020Z,56.00
2018-12-29T12:08:31.996Z,50.20
2018-12-29T12:09:31.986Z,53.30
2018-12-29T12:10:31.981Z,54.40
2018-12-29T12:11:31.970Z,53.90
2018-12-29T12:12:31.960Z,54.50
2018-12-29T12:13:31.943Z,50.20
2018-12-29T12:14:31.944Z,52.60
2018-12-29T12:15:31.931Z,52.20
2018-12-29T12:16:31.912Z,56.00
2018-12-29T12:17:31.914Z,51.90
2018-12-29T12:18:31.896Z,52.30
2018-12-29T12:19:31.885Z,51.90
2018-12-29T12:20:31.878Z,50.60
2018-12-29T12:21:31.870Z,50.50
2018-12-29T12:22:31.855Z,49.50
2018-12-29T12:23:31.842Z,48.70
2018-12-29T12:24:31.832Z,48.50
2018-12-29T12:25:31.820Z,48.30
2018-12-29T12:26:31.810Z,47.00
2018-12-29T12:27:31.800Z,45.50
2018-12-29T12:28:31.796Z,45.50
2018-12-29T12:29:31.777Z,45.30
2018-12-29T12:30:31.779Z,43.30
2018-12-29T12:31:31.755Z,44.20
2018-12-29T12:32:31.750Z,44.90
2018-12-29T12:33:31.742Z,43.10
2018-12-29T12:34:31.724Z,43.60
2018-12-29T12:35:31.715Z,43.80
2018-12-29T12:36:31.716Z,45.00
2018-12-29T12:37:31.702Z,43.80
2018-12-29T12:38:31.681Z,43.90
2018-12-29T12:39:31.676Z,46.70
2018-12-29T12:40:31.665Z,43.20
2018-12-29T12:41:31.660Z,42.50
2018-12-29T12:42:31.644Z,41.90
2018-12-29T12:43:31.655Z,37.90
2018-12-29T12:44:31.625Z,38.90
2018-12-29T12:45:31.611Z,38.10
2018-12-29T12:46:31.602Z,37.10
2018-12-29T12:47:31.596Z,40.50
2018-12-29T12:48:31.583Z,39.60
2018-12-29T12:49:31.570Z,42.80
2018-12-29T12:50:31.558Z,41.20
2018-12-29T12:51:31.544Z,41.00
2018-12-29T12:52:31.546Z,42.90